Kezdőlap
METAR-TAF:

METAR-TAF

Repülőterek :

Mount Washington Regional Airport

Whitefield, New Hampshire, Amerikai Egyesült Államok

földrajzi szélesség: 44-21-58N, földrajzi hosszúság: 071-33-09W, magasság: 327 m

Jelenlegi meteorológiai megfigyelések

A jelentés 31 perccel ezelõtt készült, 17:52 UTC
Szélcsend
Hőmérséklet 7°C
Páratartalom 39%
Légköri nyomás 1016 hPa
Látótávolság: 16.1 km
Derült ég

METAR: KHIE 231752Z AUTO 00000KT 10SM CLR 07/M06 A3000 RMK AO2 SLP175 T00671056 10067 21161 58023

Idő: 13:23 (18:23 UTC)

Előrejelzés

A jelentés 52 perccel ezelõtt készült, 17:31 UTC
Az előrejelzés 23-én 18 óra UTC és 24-én 18 óra UTC között érvényes
Nyugati szél 2 kt
Látótávolság: 10 km
Kevés felhő 25000 lábon

TAF: KHIE 231731Z 2318/2418 27002KT P6SM FEW250

Meteorológiai megfigyelések és előrejelzések több, mint 4000 repülőtéren (METAR és TAF jelentéseket).

A térképen piros és sárga pontok jelzik az elérhető meteorológiai állomásokat.

Mozgassa az egeret a pont fölött, hogy megjelenjen az állomás neve.

Azután kattintson az időjárási megfigyelések és előrejelzések megtekintéséhez.

A térkép megváltoztatása: kattintson a fekete keresztel jelölt zöld gombra ráközelítéshez, a vonallal jelölt zöld gombra távolításhoz, vagy a zöld nyilakra a szomszédos térképek eléréséhez.


METAR-TAF: